createdAt,value
2022-09-21T00:00:46.845Z,100186.84
2022-09-21T00:06:48.817Z,100193.84
2022-09-21T00:12:50.711Z,100179.16
2022-09-21T00:18:52.789Z,100187.81
2022-09-21T00:24:56.097Z,100182.81
2022-09-21T00:31:07.032Z,100194.28
2022-09-21T00:37:09.317Z,100194.66
2022-09-21T00:43:16.498Z,100196.94
2022-09-21T00:49:19.736Z,100194.34
2022-09-21T00:55:32.338Z,100202.50
2022-09-21T01:01:34.656Z,100196.50
2022-09-21T01:07:45.005Z,100203.25
2022-09-21T01:14:17.512Z,100210.50
2022-09-21T01:20:49.878Z,100223.00
2022-09-21T01:27:21.859Z,100216.31
2022-09-21T01:33:34.331Z,100217.84
2022-09-21T01:39:40.014Z,100224.84
2022-09-21T01:45:49.903Z,100226.97
2022-09-21T01:52:18.493Z,100229.53
2022-09-21T01:58:38.917Z,100231.16
2022-09-21T02:04:41.175Z,100233.88
2022-09-21T02:10:51.471Z,100235.44
2022-09-21T02:17:28.742Z,100246.34
2022-09-21T02:24:01.979Z,100237.53
2022-09-21T02:30:09.074Z,100240.59
2022-09-21T02:36:31.866Z,100246.84
2022-09-21T02:42:39.350Z,100241.59
2022-09-21T02:49:09.594Z,100233.84
2022-09-21T02:55:14.596Z,100237.34
2022-09-21T03:01:18.308Z,100232.50
2022-09-21T03:07:20.151Z,100236.72
2022-09-21T03:13:22.030Z,100228.41
2022-09-21T03:19:23.924Z,100236.03
2022-09-21T03:25:26.203Z,100243.03
2022-09-21T03:31:28.045Z,100241.28
2022-09-21T03:37:31.066Z,100238.25
2022-09-21T03:43:33.198Z,100234.81
2022-09-21T03:49:35.179Z,100245.41
2022-09-21T03:55:37.584Z,100255.28
2022-09-21T04:01:39.541Z,100247.38
2022-09-21T04:07:45.657Z,100259.25
2022-09-21T04:13:53.256Z,100253.25
2022-09-21T04:19:55.206Z,100249.38
2022-09-21T04:25:57.488Z,100250.66
2022-09-21T04:31:59.840Z,100251.25
2022-09-21T04:38:02.016Z,100265.03
2022-09-21T04:44:04.104Z,100259.56
2022-09-21T04:50:07.065Z,100260.09
2022-09-21T04:56:10.645Z,100273.66
2022-09-21T05:02:12.571Z,100280.09
2022-09-21T05:08:14.656Z,100283.53
2022-09-21T05:14:16.659Z,100282.75
2022-09-21T05:20:18.524Z,100282.19
2022-09-21T05:26:21.025Z,100295.66
2022-09-21T05:32:53.106Z,100305.22
2022-09-21T05:38:56.746Z,100309.84
2022-09-21T05:44:59.382Z,100319.78
2022-09-21T05:51:36.422Z,100318.63
2022-09-21T05:57:46.811Z,100324.78
2022-09-21T06:03:50.175Z,100323.06
2022-09-21T06:09:52.899Z,100316.03
2022-09-21T06:15:54.923Z,100328.59
2022-09-21T06:22:09.010Z,100336.13
2022-09-21T06:28:13.355Z,100347.81
2022-09-21T06:34:15.266Z,100337.69
2022-09-21T06:40:17.196Z,100327.66
2022-09-21T06:46:19.197Z,100345.94
2022-09-21T06:52:21.115Z,100340.50
2022-09-21T06:58:22.988Z,100342.06
2022-09-21T07:04:25.311Z,100337.00
2022-09-21T07:10:28.671Z,100351.06
2022-09-21T07:16:31.095Z,100347.22
2022-09-21T07:28:53.548Z,100364.47
2022-09-21T07:34:58.339Z,100367.59
2022-09-21T07:41:03.134Z,100364.25
2022-09-21T07:47:05.458Z,100365.84
2022-09-21T07:53:07.594Z,100376.06
2022-09-21T07:59:11.260Z,100375.91
2022-09-21T08:05:13.431Z,100378.38
2022-09-21T08:11:18.716Z,100382.53
2022-09-21T08:17:20.897Z,100386.47
2022-09-21T08:29:39.612Z,100388.13
2022-09-21T08:35:41.492Z,100380.31
2022-09-21T08:42:04.417Z,100389.91
2022-09-21T08:48:28.316Z,100386.69
2022-09-21T08:54:51.031Z,100388.22
2022-09-21T09:01:20.195Z,100385.53
2022-09-21T09:07:45.703Z,100390.91
2022-09-21T09:14:13.951Z,100388.47
2022-09-21T09:20:30.889Z,100391.38
2022-09-21T09:26:35.524Z,100389.94
2022-09-21T09:33:16.488Z,100390.06
2022-09-21T09:39:18.590Z,100400.38
2022-09-21T09:45:47.491Z,100396.94
2022-09-21T09:51:49.847Z,100393.16
2022-09-21T09:57:55.107Z,100397.41
2022-09-21T10:04:15.936Z,100400.50
2022-09-21T10:10:32.779Z,100400.38
2022-09-21T10:16:41.704Z,100413.06
2022-09-21T10:22:55.257Z,100403.81
2022-09-21T10:29:17.274Z,100413.91
2022-09-21T10:35:19.883Z,100403.09
2022-09-21T10:41:22.393Z,100402.13
2022-09-21T10:47:39.275Z,100396.63
2022-09-21T10:53:53.755Z,100398.28
2022-09-21T10:59:57.357Z,100395.16
2022-09-21T11:06:26.905Z,100373.59
2022-09-21T11:12:43.225Z,100372.03
2022-09-21T11:19:22.426Z,100369.94
2022-09-21T11:25:36.704Z,100359.81
2022-09-21T11:32:17.307Z,100355.56
2022-09-21T11:39:03.923Z,100348.03
2022-09-21T11:45:51.450Z,100337.78
2022-09-21T11:52:02.105Z,100343.19
2022-09-21T11:58:43.110Z,100334.19
2022-09-21T12:05:31.512Z,100324.69
2022-09-21T12:12:18.326Z,100320.03
2022-09-21T12:18:52.460Z,100319.53
2022-09-21T12:25:07.316Z,100313.50
2022-09-21T12:32:07.114Z,100295.56
2022-09-21T12:38:26.360Z,100300.75
2022-09-21T12:44:54.248Z,100309.84
2022-09-21T12:51:32.734Z,100305.78
2022-09-21T12:58:14.643Z,100303.84
2022-09-21T13:04:43.450Z,100293.38
2022-09-21T13:11:08.007Z,100293.63
2022-09-21T13:17:23.745Z,100279.41
2022-09-21T13:23:41.799Z,100274.88
2022-09-21T13:30:06.860Z,100268.91
2022-09-21T13:36:34.169Z,100274.09
2022-09-21T13:42:39.069Z,100268.72
2022-09-21T13:48:42.305Z,100264.75
2022-09-21T13:54:52.249Z,100256.44
2022-09-21T14:01:29.243Z,100247.91
2022-09-21T14:20:01.015Z,100236.75
2022-09-21T14:26:33.901Z,100235.66
2022-09-21T14:32:47.366Z,100230.63
2022-09-21T14:39:00.439Z,100232.28
2022-09-21T14:45:07.250Z,100230.31
2022-09-21T14:51:55.714Z,100213.88
2022-09-21T14:58:52.197Z,100223.75
2022-09-21T15:11:47.029Z,100201.81
2022-09-21T15:17:59.363Z,100196.97
2022-09-21T15:24:18.891Z,100196.59
2022-09-21T15:30:33.119Z,100199.94
2022-09-21T15:36:41.098Z,100205.28
2022-09-21T15:43:05.718Z,100203.06
2022-09-21T15:49:13.419Z,100205.41
2022-09-21T15:55:21.378Z,100205.09
2022-09-21T16:01:26.184Z,100205.75
2022-09-21T16:07:36.479Z,100197.69
2022-09-21T16:13:57.846Z,100208.16
2022-09-21T16:20:43.823Z,100203.78
2022-09-21T16:34:43.117Z,100192.56
2022-09-21T16:40:57.151Z,100197.94
2022-09-21T16:47:04.880Z,100188.44
2022-09-21T16:53:06.817Z,100175.53
2022-09-21T16:59:21.892Z,100186.53
2022-09-21T17:05:27.172Z,100185.19
2022-09-21T17:11:36.210Z,100184.16
2022-09-21T17:17:38.169Z,100184.75
2022-09-21T17:23:42.110Z,100177.22
2022-09-21T17:29:49.609Z,100174.69
2022-09-21T17:35:53.116Z,100164.97
2022-09-21T17:42:13.737Z,100159.50
2022-09-21T17:48:22.110Z,100167.69
2022-09-21T17:54:24.514Z,100166.16
2022-09-21T18:01:01.737Z,100169.41
2022-09-21T18:07:05.533Z,100158.22
2022-09-21T18:13:24.054Z,100159.72
2022-09-21T18:19:52.253Z,100166.53
2022-09-21T18:25:57.206Z,100173.09
2022-09-21T18:32:24.011Z,100169.81
2022-09-21T18:39:02.731Z,100172.53
2022-09-21T18:45:25.134Z,100172.16
2022-09-21T18:51:43.184Z,100184.31
2022-09-21T18:57:48.018Z,100180.78
2022-09-21T19:03:50.630Z,100185.09
2022-09-21T19:10:22.721Z,100178.91
2022-09-21T19:16:35.117Z,100185.16
2022-09-21T19:23:14.799Z,100195.44
2022-09-21T19:29:35.343Z,100180.22
2022-09-21T19:35:42.725Z,100180.00
2022-09-21T19:42:01.190Z,100186.81
2022-09-21T19:48:10.508Z,100180.00
2022-09-21T19:54:36.341Z,100188.06
2022-09-21T20:00:38.802Z,100181.94
2022-09-21T20:06:54.179Z,100184.59
2022-09-21T20:13:32.239Z,100182.47
2022-09-21T20:19:44.410Z,100187.56
2022-09-21T20:26:15.316Z,100188.22
2022-09-21T20:32:18.231Z,100186.00
2022-09-21T20:38:20.193Z,100175.44
2022-09-21T20:44:26.165Z,100182.22
2022-09-21T20:50:30.340Z,100192.25
2022-09-21T21:03:26.793Z,100192.09
2022-09-21T21:09:28.678Z,100185.91
2022-09-21T21:15:32.086Z,100187.94
2022-09-21T21:21:34.545Z,100189.16
2022-09-21T21:27:36.587Z,100189.16
2022-09-21T21:33:39.976Z,100188.78
2022-09-21T21:39:42.141Z,100180.94
2022-09-21T21:45:51.282Z,100187.50
2022-09-21T21:51:53.683Z,100190.00
2022-09-21T21:57:57.151Z,100187.31
2022-09-21T22:04:01.943Z,100191.34
2022-09-21T22:10:04.211Z,100188.53
2022-09-21T22:16:28.888Z,100188.69
2022-09-21T22:22:38.896Z,100191.03
2022-09-21T22:35:05.111Z,100191.31
2022-09-21T22:41:14.471Z,100192.34
2022-09-21T22:47:16.959Z,100194.16
2022-09-21T22:53:20.212Z,100199.19
2022-09-21T22:59:22.058Z,100194.63
2022-09-21T23:05:24.005Z,100191.88
2022-09-21T23:11:37.163Z,100190.66
2022-09-21T23:17:41.874Z,100191.16
2022-09-21T23:23:44.983Z,100185.78
2022-09-21T23:29:46.962Z,100177.72
2022-09-21T23:35:51.613Z,100174.91
2022-09-21T23:41:54.625Z,100166.88
2022-09-21T23:47:56.580Z,100171.03
2022-09-21T23:53:59.864Z,100155.78
